| time (UTC) | temp F | wind direction | speed MPH | gust MPH | rain 1hr in | rain 24hr in | rain mn in | humidity % | barometer mb |
| 20260508174512 | 62 | 322 | 3.0 | 8.0 | 0.00 | 0.00 | 0.00 | 56 | 1012.0 |
| 20260508173017 | 62 | 323 | 2.0 | 9.0 | 0.00 | 0.00 | 0.00 | 60 | 1012.3 |
| 20260508171508 | 61 | 281 | 3.0 | 8.0 | 0.00 | 0.00 | 0.00 | 57 | 1012.7 |
| 20260508170004 | 59 | 299 | 5.0 | 9.0 | 0.00 | 0.00 | 0.00 | 59 | 1013.2 |
| 20260508164503 | 59 | 294 | 4.0 | 9.0 | 0.00 | 0.00 | 0.00 | 59 | 1013.3 |
| 20260508163106 | 60 | 228 | 4.0 | 9.0 | 0.00 | 0.00 | 0.00 | 62 | 1013.2 |
| 20260508161607 | 58 | 227 | 3.0 | 11.0 | 0.00 | 0.00 | 0.00 | 61 | 1013.3 |
| 20260508160056 | 57 | 309 | 4.0 | 11.0 | 0.00 | 0.00 | 0.00 | 64 | 1013.5 |
| 20260508154557 | 56 | 296 | 3.0 | 9.0 | 0.00 | 0.00 | 0.00 | 65 | 1013.6 |
| 20260508153052 | 54 | 331 | 1.0 | 7.0 | 0.00 | 0.00 | 0.00 | 69 | 1013.6 |
| 20260508151541 | 53 | 253 | 3.0 | 7.0 | 0.00 | 0.00 | 0.00 | 68 | 1013.6 |
| 20260508150039 | 52 | 242 | 1.0 | 5.0 | 0.00 | 0.00 | 0.00 | 68 | 1013.8 |
| 20260508144537 | 52 | 246 | 2.0 | 8.0 | 0.00 | 0.00 | 0.00 | 68 | 1013.9 |
| 20260508143035 | 52 | 246 | 1.0 | 5.0 | 0.00 | 0.00 | 0.00 | 68 | 1013.8 |
| 20260508141529 | 52 | 270 | 3.0 | 8.0 | 0.00 | 0.00 | 0.00 | 67 | 1013.8 |
| 20260508140028 | 52 | 274 | 0.0 | 4.0 | 0.00 | 0.00 | 0.00 | 70 | 1014.0 |
| 20260508134522 | 51 | 277 | 0.0 | 8.0 | 0.00 | 0.00 | 0.00 | 69 | 1014.0 |
| 20260508133021 | 51 | 267 | 2.0 | 6.0 | 0.00 | 0.00 | 0.00 | 69 | 1013.9 |
| 20260508131520 | 51 | 267 | 2.0 | 7.0 | 0.00 | 0.00 | 0.00 | 69 | 1013.9 |
| 20260508130024 | 51 | 275 | 2.0 | 6.0 | 0.00 | 0.00 | 0.00 | 70 | 1013.8 |
| 20260508124516 | 50 | 258 | 1.0 | 6.0 | 0.00 | 0.00 | 0.00 | 72 | 1013.9 |
| 20260508123014 | 50 | 300 | 1.0 | 5.0 | 0.00 | 0.00 | 0.00 | 72 | 1013.8 |
| 20260508121511 | 48 | 267 | 1.0 | 8.0 | 0.00 | 0.00 | 0.00 | 73 | 1013.7 |
| 20260508120010 | 48 | 313 | 2.0 | 8.0 | 0.00 | 0.00 | 0.00 | 72 | 1013.6 |
| 20260508114511 | 47 | 256 | 2.0 | 8.0 | 0.00 | 0.00 | 0.00 | 73 | 1013.5 |
| 20260508113013 | 47 | 265 | 1.0 | 6.0 | 0.00 | 0.00 | 0.00 | 73 | 1013.3 |
| 20260508111511 | 46 | 221 | 2.0 | 7.0 | 0.00 | 0.00 | 0.00 | 75 | 1013.3 |
| 20260508110007 | 45 | 306 | 1.0 | 8.0 | 0.00 | 0.00 | 0.00 | 76 | 1013.3 |
| 20260508104507 | 44 | 261 | 1.0 | 5.0 | 0.00 | 0.00 | 0.00 | 77 | 1013.3 |
| 20260508103015 | 44 | 246 | 0.0 | 5.0 | 0.00 | 0.00 | 0.00 | 77 | 1013.2 |
| 20260508101506 | 44 | 279 | 1.0 | 5.0 | 0.00 | 0.00 | 0.00 | 78 | 1013.0 |
| 20260508100006 | 43 | 282 | 2.0 | 4.0 | 0.00 | 0.00 | 0.00 | 80 | 1013.0 |
| 20260508094503 | 43 | 292 | 1.0 | 3.0 | 0.00 | 0.00 | 0.00 | 83 | 1013.0 |
| 20260508093002 | 42 | 298 | 0.0 | 2.0 | 0.00 | 0.00 | 0.00 | 86 | 1013.0 |
| 20260508091604 | 42 | 298 | 0.0 | 2.0 | 0.00 | 0.00 | 0.00 | 88 | 1013.2 |
| 20260508090059 | 41 | 298 | 1.0 | 2.0 | 0.00 | 0.00 | 0.00 | 90 | 1013.3 |
| 20260508084555 | 42 | 298 | 0.0 | 2.0 | 0.00 | 0.00 | 0.00 | 89 | 1013.4 |
| 20260508083056 | 42 | 360 | 0.0 | 2.0 | 0.00 | 0.00 | 0.00 | 87 | 1013.3 |
| 20260508081603 | 43 | 298 | 0.0 | 2.0 | 0.00 | 0.00 | 0.00 | 85 | 1013.4 |
| 20260508080045 | 44 | 298 | 0.0 | 2.0 | 0.00 | 0.00 | 0.00 | 83 | 1013.2 |
| 20260508074543 | 45 | 298 | 0.0 | 1.0 | 0.00 | 0.00 | 0.00 | 82 | 1013.2 |
| 20260508073041 | 46 | 298 | 0.0 | 1.0 | 0.00 | 0.00 | 0.00 | 80 | 1013.3 |
| 20260508071539 | 46 | 296 | 1.0 | 3.0 | 0.00 | 0.00 | 0.00 | 81 | 1013.4 |
| 20260508070036 | 47 | 300 | 0.0 | 2.0 | 0.00 | 0.00 | 0.00 | 82 | 1013.6 |
| 20260508064536 | 46 | 300 | 0.0 | 2.0 | 0.00 | 0.00 | 0.00 | 83 | 1013.5 |
| 20260508063032 | 47 | 300 | 0.0 | 2.0 | 0.00 | 0.00 | 0.00 | 81 | 1013.7 |
| 20260508061532 | 47 | 300 | 0.0 | 2.0 | 0.00 | 0.00 | 0.00 | 77 | 1014.0 |
| 20260508060030 | 48 | 300 | 0.0 | 3.0 | 0.00 | 0.00 | 0.00 | 77 | 1014.4 |
| 20260508054533 | 48 | 234 | 4.0 | 9.0 | 0.00 | 0.00 | 0.00 | 76 | 1014.7 |
| 20260508053031 | 49 | 315 | 2.0 | 9.0 | 0.00 | 0.00 | 0.00 | 75 | 1014.9 |
| 20260508051530 | 48 | 307 | 0.0 | 0.0 | 0.00 | 0.00 | 0.00 | 74 | 1014.3 |
| 20260508050025 | 48 | 308 | 0.0 | 0.0 | 0.00 | 0.00 | 0.00 | 77 | 1013.9 |
| 20260508044520 | 48 | 308 | 0.0 | 0.0 | 0.00 | 0.00 | 0.00 | 74 | 1013.9 |
| 20260508043019 | 48 | 308 | 0.0 | 0.0 | 0.00 | 0.00 | 0.00 | 77 | 1013.9 |
| 20260508041516 | 47 | 308 | 0.0 | 0.0 | 0.00 | 0.00 | 0.00 | 79 | 1014.1 |
| 20260508040015 | 47 | 308 | 0.0 | 0.0 | 0.00 | 0.00 | 0.00 | 79 | 1014.1 |
| 20260508034513 | 48 | 308 | 0.0 | 0.0 | 0.00 | 0.00 | 0.00 | 75 | 1014.1 |
| 20260508033013 | 48 | 308 | 0.0 | 0.0 | 0.00 | 0.00 | 0.00 | 73 | 1014.1 |
| 20260508031512 | 48 | 308 | 0.0 | 1.0 | 0.00 | 0.00 | 0.00 | 73 | 1014.2 |
| 20260508030012 | 49 | 308 | 0.0 | 0.0 | 0.00 | 0.00 | 0.00 | 71 | 1014.3 |
| 20260508024512 | 49 | 308 | 0.0 | 0.0 | 0.00 | 0.00 | 0.00 | 67 | 1014.2 |
| 20260508023014 | 49 | 308 | 0.0 | 1.0 | 0.00 | 0.00 | 0.00 | 67 | 1014.0 |
| 20260508021510 | 50 | 308 | 0.0 | 1.0 | 0.00 | 0.00 | 0.00 | 65 | 1014.0 |
| 20260508020010 | 50 | 308 | 0.0 | 1.0 | 0.00 | 0.00 | 0.00 | 65 | 1013.9 |
| 20260508014510 | 51 | 308 | 1.0 | 4.0 | 0.00 | 0.00 | 0.00 | 60 | 1013.9 |
| 20260508013008 | 50 | 280 | 0.0 | 0.0 | 0.00 | 0.00 | 0.00 | 64 | 1014.1 |
| 20260508010009 | 51 | 280 | 0.0 | 6.0 | 0.00 | 0.00 | 0.00 | 58 | 1013.7 |
| 20260508004508 | 50 | 350 | 0.0 | 2.0 | 0.00 | 0.00 | 0.00 | 67 | 1013.8 |
| 20260508003006 | 51 | 350 | 0.0 | 0.0 | 0.00 | 0.00 | 0.00 | 62 | 1013.7 |
| 20260508001505 | 51 | 350 | 0.0 | 0.0 | 0.00 | 0.00 | 0.00 | 58 | 1013.6 |
| 20260508000008 | 52 | 350 | 0.0 | 0.0 | 0.00 | 0.00 | 0.00 | 56 | 1013.4 |
| 20260507234515 | 53 | 350 | 0.0 | 1.0 | 0.00 | 0.00 | 0.00 | 56 | 1013.3 |
| 20260507233004 | 54 | 350 | 1.0 | 4.0 | 0.00 | 0.00 | 0.00 | 48 | 1013.3 |
| 20260507231503 | 55 | 355 | 2.0 | 4.0 | 0.00 | 0.00 | 0.00 | 46 | 1013.3 |
| 20260507230003 | 56 | 355 | 0.0 | 5.0 | 0.00 | 0.00 | 0.00 | 47 | 1013.3 |
| 20260507224506 | 56 | 355 | 5.0 | 10.0 | 0.00 | 0.00 | 0.00 | 45 | 1013.4 |
| 20260507223002 | 55 | 306 | 4.0 | 11.0 | 0.00 | 0.00 | 0.00 | 46 | 1013.5 |
| 20260507221600 | 56 | 309 | 5.0 | 11.0 | 0.00 | 0.00 | 0.00 | 46 | 1013.6 |
| 20260507220059 | 56 | 324 | 5.0 | 11.0 | 0.00 | 0.00 | 0.00 | 44 | 1013.6 |
| 20260507214601 | 56 | 327 | 4.0 | 12.0 | 0.00 | 0.00 | 0.00 | 44 | 1013.4 |
| 20260507213103 | 56 | 327 | 3.0 | 12.0 | 0.00 | 0.00 | 0.00 | 48 | 1013.4 |
| 20260507211556 | 56 | 345 | 7.0 | 15.0 | 0.00 | 0.00 | 0.00 | 45 | 1013.4 |
| 20260507210054 | 56 | 339 | 7.0 | 18.0 | 0.00 | 0.00 | 0.00 | 49 | 1013.3 |
| 20260507204557 | 55 | 347 | 5.0 | 14.0 | 0.00 | 0.00 | 0.00 | 47 | 1013.4 |
| 20260507203101 | 55 | 342 | 4.0 | 12.0 | 0.00 | 0.00 | 0.00 | 48 | 1013.3 |
| 20260507201552 | 55 | 5 | 4.0 | 12.0 | 0.00 | 0.00 | 0.00 | 48 | 1013.3 |
| 20260507200052 | 55 | 360 | 11.0 | 16.0 | 0.00 | 0.00 | 0.00 | 48 | 1013.6 |
| 20260507194550 | 55 | 5 | 10.0 | 16.0 | 0.00 | 0.00 | 0.00 | 54 | 1013.4 |
| 20260507193054 | 56 | 344 | 6.0 | 16.0 | 0.00 | 0.00 | 0.00 | 51 | 1013.7 |
| 20260507191546 | 54 | 355 | 8.0 | 17.0 | 0.00 | 0.00 | 0.00 | 52 | 1013.7 |
| 20260507190045 | 54 | 15 | 7.0 | 14.0 | 0.00 | 0.00 | 0.00 | 51 | 1013.8 |
| 20260507184545 | 55 | 317 | 7.0 | 15.0 | 0.00 | 0.00 | 0.00 | 50 | 1013.9 |
| 20260507183045 | 55 | 319 | 6.0 | 13.0 | 0.00 | 0.00 | 0.00 | 54 | 1014.0 |
| 20260507181542 | 55 | 290 | 4.0 | 10.0 | 0.00 | 0.00 | 0.00 | 57 | 1014.0 |
| 20260507180042 | 54 | 350 | 8.0 | 13.0 | 0.00 | 0.00 | 0.00 | 55 | 1014.1 |